Time;durP1;ratioP1;P1;durP2;ratioP2;P2;SDS_P1;SDS_P2;PMS_P1;PMS_P2;Temp;Humidity;BMP_temperature;BMP_pressure;BME280_temperature;BME280_humidity;BME280_pressure;Samples;Min_cycle;Max_cycle;Signal;HPM_P1;HPM_P2
2023/11/17 00:01:46;;;;;;;8.50;7.63;;;9.90;99.90;;;;;;5051676;28;20178;-63
2023/11/17 00:04:14;;;;;;;8.47;7.67;;;9.90;99.90;;;;;;5050935;28;20458;-63
2023/11/17 00:06:40;;;;;;;8.40;7.57;;;9.90;99.90;;;;;;5050399;28;20203;-63
2023/11/17 00:09:10;;;;;;;8.07;7.37;;;10.00;99.90;;;;;;5052324;28;20406;-64
2023/11/17 00:11:36;;;;;;;9.00;8.10;;;9.90;99.90;;;;;;5054397;28;20879;-62
2023/11/17 00:14:03;;;;;;;9.50;7.63;;;9.90;99.90;;;;;;5054772;28;20520;-63
2023/11/17 00:16:29;;;;;;;9.13;8.23;;;9.90;99.90;;;;;;5053774;28;20870;-62
2023/11/17 00:18:54;;;;;;;9.60;8.60;;;9.90;99.90;;;;;;5055903;28;20436;-63
2023/11/17 00:21:21;;;;;;;8.87;8.07;;;9.90;99.90;;;;;;5053452;28;20170;-63
2023/11/17 00:23:47;;;;;;;9.00;7.97;;;9.90;99.90;;;;;;5054855;28;20634;-63
2023/11/17 00:26:13;;;;;;;8.17;7.37;;;9.90;99.90;;;;;;5055405;28;20474;-63
2023/11/17 00:28:39;;;;;;;7.60;6.90;;;9.90;99.90;;;;;;5054571;28;20178;-63
2023/11/17 00:31:09;;;;;;;10.73;7.67;;;9.90;99.90;;;;;;5054672;28;20418;-62
2023/11/17 00:33:36;;;;;;;8.60;7.70;;;9.80;99.90;;;;;;5055265;28;20414;-63
2023/11/17 00:36:02;;;;;;;8.17;7.37;;;9.80;99.90;;;;;;5054197;28;20475;-63
2023/11/17 00:38:31;;;;;;;12.57;7.30;;;9.70;99.90;;;;;;5053919;28;20493;-63
2023/11/17 00:41:00;;;;;;;8.33;7.27;;;9.70;99.90;;;;;;5055508;28;20406;-63
2023/11/17 00:43:26;;;;;;;10.90;7.80;;;9.70;99.90;;;;;;5054032;28;20457;-63
2023/11/17 00:45:58;;;;;;;9.03;8.20;;;9.60;99.90;;;;;;5054948;28;20517;-63
2023/11/17 00:48:31;;;;;;;7.87;6.50;;;9.60;99.90;;;;;;5053837;28;20444;-63
2023/11/17 00:50:58;;;;;;;8.27;6.97;;;9.50;99.90;;;;;;5054406;28;20423;-63
2023/11/17 00:53:26;;;;;;;7.80;7.10;;;9.60;99.90;;;;;;5053913;28;20486;-63
2023/11/17 00:55:55;;;;;;;7.93;7.13;;;9.60;99.90;;;;;;5054583;28;20827;-63
2023/11/17 00:58:24;;;;;;;6.67;6.17;;;9.50;99.90;;;;;;5053855;28;20452;-62
2023/11/17 01:00:52;;;;;;;7.70;6.90;;;9.50;99.90;;;;;;5053139;28;20515;-63
2023/11/17 01:03:19;;;;;;;10.33;6.43;;;9.50;99.90;;;;;;5055076;28;20509;-63
2023/11/17 01:05:45;;;;;;;6.60;6.00;;;9.80;99.90;;;;;;5053483;28;20430;-63
2023/11/17 01:08:11;;;;;;;8.10;7.30;;;9.40;99.90;;;;;;5054043;28;20927;-63
2023/11/17 01:10:38;;;;;;;7.23;6.57;;;9.50;99.90;;;;;;5053389;28;20406;-62
2023/11/17 01:13:05;;;;;;;7.27;6.57;;;9.40;99.90;;;;;;5036907;28;20775;-62
2023/11/17 01:15:34;;;;;;;8.00;7.30;;;9.40;99.90;;;;;;5061273;28;20464;-62
2023/11/17 01:18:01;;;;;;;9.50;7.27;;;9.40;99.90;;;;;;5077879;28;20443;-62
2023/11/17 01:20:27;;;;;;;8.33;7.30;;;9.40;99.90;;;;;;5068373;28;20426;-63
2023/11/17 01:22:52;;;;;;;8.60;7.67;;;9.30;99.90;;;;;;5061790;28;20562;-63
2023/11/17 01:25:18;;;;;;;8.60;7.80;;;9.40;99.90;;;;;;5092275;28;20193;-63
2023/11/17 01:27:44;;;;;;;8.97;8.07;;;9.40;99.90;;;;;;5063663;28;20175;-63
2023/11/17 01:30:10;;;;;;;11.40;8.13;;;9.40;99.90;;;;;;5067233;28;20179;-63
2023/11/17 01:32:36;;;;;;;9.50;8.07;;;9.40;99.90;;;;;;5066961;28;20529;-62
2023/11/17 01:35:03;;;;;;;9.87;8.70;;;9.40;99.90;;;;;;5074806;28;20502;-63
2023/11/17 01:37:29;;;;;;;10.30;9.20;;;9.40;99.90;;;;;;5072747;28;20238;-63
2023/11/17 01:39:55;;;;;;;8.73;7.80;;;9.40;99.90;;;;;;5073316;28;20432;-63
2023/11/17 01:42:21;;;;;;;9.00;8.10;;;9.40;99.90;;;;;;5073561;28;20167;-63
2023/11/17 01:44:47;;;;;;;9.80;8.90;;;9.40;99.90;;;;;;5073386;28;20208;-63
2023/11/17 01:47:14;;;;;;;9.80;8.80;;;9.40;99.90;;;;;;5068051;28;20431;-63
2023/11/17 01:49:41;;;;;;;9.53;8.63;;;9.50;99.90;;;;;;5074527;28;20437;-63
2023/11/17 01:52:07;;;;;;;10.47;8.70;;;9.40;99.90;;;;;;5094464;28;20400;-63
2023/11/17 01:54:35;;;;;;;12.87;10.17;;;9.40;99.90;;;;;;5082741;28;20983;-63
2023/11/17 01:57:02;;;;;;;10.97;8.90;;;9.30;99.90;;;;;;5071981;28;20475;-62
2023/11/17 01:59:27;;;;;;;10.57;9.40;;;9.40;99.90;;;;;;5055605;28;20458;-62
2023/11/17 02:01:53;;;;;;;13.40;9.83;;;9.30;99.90;;;;;;5054977;28;20432;-63
2023/11/17 02:04:19;;;;;;;11.80;10.60;;;9.60;99.90;;;;;;5072774;28;20196;-63
2023/11/17 02:06:54;;;;;;;11.20;9.57;;;9.30;99.90;;;;;;5073359;28;20171;-63
2023/11/17 02:09:37;;;;;;;11.90;9.87;;;8.90;99.90;;;;;;5056182;28;20438;-63
2023/11/17 02:12:15;;;;;;;15.30;10.20;;;9.30;99.90;;;;;;5080879;28;20424;-63
2023/11/17 02:14:47;;;;;;;11.23;9.30;;;9.30;99.90;;;;;;5087579;28;20776;-62
2023/11/17 02:17:15;;;;;;;11.60;10.40;;;9.20;99.90;;;;;;5053927;28;20473;-62
2023/11/17 02:19:43;;;;;;;9.37;8.47;;;9.30;99.90;;;;;;5052132;28;20431;-62
2023/11/17 02:22:21;;;;;;;11.10;9.50;;;9.30;99.90;;;;;;5052524;28;20775;-62
2023/11/17 02:25:10;;;;;;;12.17;10.97;;;9.40;99.90;;;;;;5051563;28;20446;-62
2023/11/17 02:27:59;;;;;;;10.87;9.77;;;9.30;99.90;;;;;;5014361;28;20476;-62
2023/11/17 02:30:29;;;;;;;14.13;10.47;;;9.20;99.90;;;;;;5033233;28;20752;-61
2023/11/17 02:32:55;;;;;;;12.30;10.90;;;9.20;99.90;;;;;;5041272;28;20437;-62
2023/11/17 02:35:28;;;;;;;12.90;11.63;;;9.20;99.90;;;;;;5052849;28;20826;-63
2023/11/17 02:38:02;;;;;;;13.13;11.83;;;9.20;99.90;;;;;;5053490;28;20401;-62
2023/11/17 02:40:31;;;;;;;14.53;11.73;;;9.20;99.90;;;;;;5051557;28;20503;-62
2023/11/17 02:43:05;;;;;;;12.10;10.90;;;9.10;99.90;;;;;;5051140;28;21715;-62
2023/11/17 02:45:36;;;;;;;13.43;11.67;;;9.10;99.90;;;;;;5052927;28;20417;-62
2023/11/17 02:48:03;;;;;;;13.00;11.70;;;9.20;99.90;;;;;;5051601;28;20483;-62
2023/11/17 02:50:31;;;;;;;13.60;12.17;;;9.10;99.90;;;;;;5051407;28;20883;-62
2023/11/17 02:55:47;;;;;;;14.37;10.90;;;9.20;99.90;;;;;;5052129;28;20415;-62
2023/11/17 02:58:15;;;;;;;14.87;13.07;;;9.20;99.90;;;;;;5051633;28;20901;-63
2023/11/17 03:00:41;;;;;;;13.77;12.37;;;9.20;99.90;;;;;;5052326;28;20406;-62
2023/11/17 03:03:07;;;;;;;13.87;12.47;;;9.20;99.90;;;;;;5051925;28;20426;-62
2023/11/17 03:05:33;;;;;;;12.57;11.27;;;9.20;99.90;;;;;;5051268;28;20910;-64
2023/11/17 03:08:00;;;;;;;13.80;12.23;;;9.20;99.90;;;;;;5051839;28;20182;-62
2023/11/17 03:10:26;;;;;;;13.23;11.73;;;9.30;99.90;;;;;;5052157;28;20191;-62
2023/11/17 03:12:55;;;;;;;13.80;12.40;;;9.30;99.90;;;;;;5051852;28;20942;-62
2023/11/17 03:15:24;;;;;;;13.83;12.43;;;9.20;99.90;;;;;;5051430;28;20468;-62
2023/11/17 03:17:51;;;;;;;12.63;11.43;;;9.30;99.90;;;;;;5052035;28;20420;-62
2023/11/17 03:20:17;;;;;;;18.10;12.90;;;9.30;99.90;;;;;;5051526;28;20978;-63
2023/11/17 03:22:46;;;;;;;13.73;11.80;;;9.40;99.90;;;;;;5032923;28;20935;-63
2023/11/17 03:25:17;;;;;;;15.17;12.30;;;9.40;99.90;;;;;;5050810;28;20839;-63
2023/11/17 03:27:50;;;;;;;17.83;13.30;;;9.40;99.90;;;;;;5051963;28;20884;-63
2023/11/17 03:30:17;;;;;;;13.40;12.10;;;9.40;99.90;;;;;;5051438;28;20431;-63
2023/11/17 03:32:47;;;;;;;13.10;11.27;;;9.30;99.90;;;;;;5051017;28;20440;-63
2023/11/17 03:35:13;;;;;;;14.47;12.50;;;9.30;99.90;;;;;;5051558;28;20520;-63
2023/11/17 03:37:39;;;;;;;14.27;12.80;;;9.20;99.90;;;;;;5032569;28;20866;-62
2023/11/17 03:40:11;;;;;;;14.27;11.80;;;9.30;99.90;;;;;;5051207;28;20433;-63
2023/11/17 03:42:37;;;;;;;14.70;12.40;;;9.20;99.90;;;;;;5052276;28;20426;-63
2023/11/17 03:45:08;;;;;;;14.00;12.60;;;9.20;99.90;;;;;;5050586;28;20552;-63
2023/11/17 03:47:35;;;;;;;13.13;11.70;;;9.20;99.90;;;;;;5050681;28;20772;-63
2023/11/17 03:50:03;;;;;;;13.33;11.70;;;9.20;99.90;;;;;;5052056;28;20436;-63
2023/11/17 03:52:31;;;;;;;12.73;11.43;;;9.20;99.90;;;;;;5051345;28;20458;-63
2023/11/17 03:55:00;;;;;;;14.90;12.00;;;9.10;99.90;;;;;;5039209;28;20910;-62
2023/11/17 03:57:29;;;;;;;17.73;13.27;;;9.10;99.90;;;;;;5051461;28;20455;-63
2023/11/17 03:59:59;;;;;;;13.57;11.30;;;9.10;99.90;;;;;;5051014;28;20436;-62
2023/11/17 04:02:26;;;;;;;13.70;12.23;;;9.10;99.90;;;;;;5051005;28;20422;-64
2023/11/17 04:04:52;;;;;;;13.97;12.50;;;9.10;99.90;;;;;;5051429;28;20452;-64
2023/11/17 04:07:19;;;;;;;13.40;12.00;;;9.10;99.90;;;;;;5051475;28;20428;-64
2023/11/17 04:09:48;;;;;;;15.37;11.90;;;9.10;99.90;;;;;;5050180;28;20434;-64
2023/11/17 04:12:15;;;;;;;13.77;11.90;;;9.00;99.90;;;;;;5051007;28;20875;-64
2023/11/17 04:14:41;;;;;;;17.27;13.10;;;9.10;99.90;;;;;;5050831;28;20431;-64
2023/11/17 04:17:08;;;;;;;16.43;13.70;;;9.10;99.90;;;;;;5050802;28;20473;-64
2023/11/17 04:19:34;;;;;;;17.33;14.60;;;9.10;99.90;;;;;;5051360;28;20409;-63
2023/11/17 04:22:00;;;;;;;17.30;13.63;;;9.00;99.90;;;;;;5050062;28;20521;-63
2023/11/17 04:24:26;;;;;;;19.10;14.70;;;9.10;99.90;;;;;;5050935;28;20449;-63
2023/11/17 04:26:52;;;;;;;18.33;14.30;;;9.10;99.90;;;;;;5050533;28;20938;-63
2023/11/17 04:29:18;;;;;;;20.63;15.60;;;9.10;99.90;;;;;;5051443;28;20171;-64
2023/11/17 04:31:43;;;;;;;20.80;15.60;;;9.10;99.90;;;;;;5050023;28;20183;-64
2023/11/17 04:34:12;;;;;;;20.40;15.77;;;9.10;99.90;;;;;;5032903;28;20271;-64
2023/11/17 04:36:38;;;;;;;19.30;16.43;;;9.10;99.90;;;;;;5051267;28;20224;-63
2023/11/17 04:39:16;;;;;;;22.73;16.60;;;9.00;99.90;;;;;;5050350;28;20432;-64
2023/11/17 04:41:42;;;;;;;20.53;16.53;;;9.10;99.90;;;;;;5050201;28;20424;-64
2023/11/17 04:44:08;;;;;;;17.80;14.60;;;9.10;99.90;;;;;;5050885;28;20459;-64
2023/11/17 04:46:34;;;;;;;18.73;15.10;;;9.20;99.90;;;;;;5051210;28;20257;-63
2023/11/17 04:48:59;;;;;;;19.90;14.90;;;9.20;99.90;;;;;;5048375;28;20253;-64
2023/11/17 04:51:25;;;;;;;17.07;14.63;;;9.20;99.90;;;;;;5049991;28;20170;-64
2023/11/17 04:53:51;;;;;;;19.07;15.60;;;9.20;99.90;;;;;;5047114;28;20179;-63
2023/11/17 04:56:17;;;;;;;19.40;16.37;;;9.20;99.90;;;;;;5051158;28;20187;-64
2023/11/17 04:58:43;;;;;;;23.07;17.87;;;9.20;99.90;;;;;;5052596;28;20184;-63
2023/11/17 05:01:10;;;;;;;24.80;18.00;;;9.20;99.90;;;;;;5053656;28;20435;-64
2023/11/17 05:03:36;;;;;;;24.83;17.83;;;9.20;99.90;;;;;;5053189;28;20819;-63
2023/11/17 05:06:06;;;;;;;26.87;17.73;;;9.30;99.90;;;;;;5051334;28;20429;-64
2023/11/17 05:08:33;;;;;;;23.83;16.73;;;9.30;99.90;;;;;;5054376;28;20170;-63
2023/11/17 05:10:59;;;;;;;25.37;19.53;;;9.30;99.90;;;;;;5054425;28;20767;-63
2023/11/17 05:13:25;;;;;;;25.80;17.70;;;9.40;99.90;;;;;;5053723;28;20902;-64
2023/11/17 05:15:51;;;;;;;27.57;17.97;;;9.40;99.90;;;;;;5053450;28;20481;-64
2023/11/17 05:18:17;;;;;;;26.50;17.37;;;9.40;99.90;;;;;;5055013;28;20447;-64
2023/11/17 05:20:42;;;;;;;26.50;18.23;;;9.40;99.90;;;;;;5053088;28;20626;-63
2023/11/17 05:23:12;;;;;;;24.30;16.60;;;9.40;99.90;;;;;;5053296;28;20525;-63
2023/11/17 05:25:40;;;;;;;21.63;16.53;;;9.40;99.90;;;;;;5053337;28;20191;-63
2023/11/17 05:28:08;;;;;;;23.20;16.87;;;9.40;99.90;;;;;;5054656;28;20433;-64
2023/11/17 05:30:38;;;;;;;23.10;15.90;;;9.40;99.90;;;;;;5052924;28;20436;-64
2023/11/17 05:33:04;;;;;;;22.37;17.80;;;9.30;99.90;;;;;;5053591;28;20409;-64
2023/11/17 05:35:31;;;;;;;21.23;15.43;;;9.30;99.90;;;;;;5053358;28;20836;-63
2023/11/17 05:37:57;;;;;;;20.23;14.63;;;9.20;99.90;;;;;;5048129;28;20429;-64
2023/11/17 05:40:23;;;;;;;20.40;14.87;;;9.20;99.90;;;;;;5035737;28;20429;-64
2023/11/17 05:42:49;;;;;;;24.27;15.60;;;9.20;99.90;;;;;;5052792;28;20419;-62
2023/11/17 05:45:15;;;;;;;22.30;15.63;;;9.20;99.90;;;;;;5053091;28;20220;-61
2023/11/17 05:47:41;;;;;;;22.50;15.03;;;9.20;99.90;;;;;;5052521;28;20437;-61
2023/11/17 05:50:11;;;;;;;27.00;15.63;;;9.20;99.90;;;;;;5054304;28;20408;-61
2023/11/17 05:52:39;;;;;;;23.93;16.23;;;9.10;99.90;;;;;;5052781;28;20200;-60
2023/11/17 05:55:06;;;;;;;22.80;15.30;;;9.10;99.90;;;;;;5033945;28;20622;-60
2023/11/17 05:57:32;;;;;;;22.57;15.70;;;9.00;99.90;;;;;;5036487;28;20777;-60
2023/11/17 05:59:57;;;;;;;23.13;14.70;;;9.00;99.90;;;;;;5052659;28;20439;-60
2023/11/17 06:02:27;;;;;;;17.77;13.27;;;8.90;99.90;;;;;;5053766;28;20681;-61
2023/11/17 06:04:53;;;;;;;22.33;13.53;;;8.90;99.90;;;;;;5051999;28;20603;-61
2023/11/17 06:07:20;;;;;;;16.80;14.90;;;8.90;99.90;;;;;;5033651;28;20432;-60
2023/11/17 06:09:45;;;;;;;18.77;13.80;;;8.80;99.90;;;;;;5052765;28;20428;-60
2023/11/17 06:12:12;;;;;;;19.60;14.07;;;8.80;99.90;;;;;;5052783;28;20420;-60
2023/11/17 06:14:41;;;;;;;21.73;15.57;;;8.90;99.90;;;;;;5034373;28;20185;-59
2023/11/17 06:17:08;;;;;;;20.00;13.80;;;8.80;99.90;;;;;;5052574;28;20480;-62
2023/11/17 06:19:38;;;;;;;18.30;13.70;;;8.80;99.90;;;;;;5053293;28;20519;-61
2023/11/17 06:22:07;;;;;;;20.97;13.53;;;8.80;99.90;;;;;;5052234;28;20435;-61
2023/11/17 06:24:35;;;;;;;18.13;12.80;;;8.90;99.90;;;;;;5052411;28;20954;-61
2023/11/17 06:27:01;;;;;;;23.40;15.67;;;8.70;99.90;;;;;;5051346;28;20457;-61
2023/11/17 06:29:27;;;;;;;22.17;14.50;;;8.70;99.90;;;;;;5053037;28;20875;-60
2023/11/17 06:31:53;;;;;;;24.37;16.90;;;8.70;99.90;;;;;;5050283;28;20432;-60
2023/11/17 06:34:19;;;;;;;21.00;14.30;;;8.80;99.90;;;;;;5052334;28;20194;-63
2023/11/17 06:36:45;;;;;;;21.63;14.63;;;8.70;99.90;;;;;;5045192;28;20439;-64
2023/11/17 06:39:15;;;;;;;27.30;18.53;;;8.80;99.90;;;;;;5051262;28;20197;-61
2023/11/17 06:41:48;;;;;;;24.50;16.50;;;8.60;99.90;;;;;;5050256;28;20521;-60
2023/11/17 06:44:15;;;;;;;26.10;17.93;;;8.50;99.90;;;;;;5051101;28;20787;-61
2023/11/17 06:46:42;;;;;;;27.57;17.00;;;8.50;99.90;;;;;;5047071;28;20466;-60
2023/11/17 06:49:09;;;;;;;27.73;18.10;;;8.40;99.90;;;;;;5045577;28;20459;-61
2023/11/17 06:51:54;;;;;;;26.63;18.10;;;8.40;99.90;;;;;;5051886;28;20441;-61
2023/11/17 06:54:21;;;;;;;26.70;16.57;;;8.40;99.90;;;;;;5052862;28;20450;-61
2023/11/17 06:56:47;;;;;;;24.20;17.70;;;8.50;99.90;;;;;;5048898;28;20436;-60
2023/11/17 06:59:15;;;;;;;28.40;18.60;;;8.50;99.90;;;;;;5051103;28;20436;-63
2023/11/17 07:01:43;;;;;;;28.73;18.97;;;8.40;99.90;;;;;;5049530;28;20975;-59
2023/11/17 07:04:12;;;;;;;26.97;17.93;;;8.40;99.90;;;;;;5051922;28;20563;-62
2023/11/17 07:06:42;;;;;;;28.37;17.30;;;8.40;99.90;;;;;;5052356;28;20448;-64
2023/11/17 07:09:23;;;;;;;30.03;17.43;;;8.40;99.90;;;;;;5053119;28;20419;-64
2023/11/17 07:11:54;;;;;;;26.10;16.73;;;7.90;99.90;;;;;;5051724;28;20434;-63
2023/11/17 07:14:20;;;;;;;25.13;15.63;;;8.30;99.90;;;;;;5035758;28;20503;-64
2023/11/17 07:16:47;;;;;;;21.57;15.07;;;8.30;99.90;;;;;;5049715;28;20479;-63
2023/11/17 07:19:16;;;;;;;20.60;14.43;;;8.30;99.90;;;;;;5041961;28;20454;-64
2023/11/17 07:21:43;;;;;;;20.13;13.87;;;8.30;99.90;;;;;;5033953;28;20430;-64
2023/11/17 07:24:11;;;;;;;21.40;15.27;;;8.40;99.90;;;;;;5052555;28;20454;-64
2023/11/17 07:26:37;;;;;;;20.80;15.10;;;8.30;99.90;;;;;;5050550;28;20831;-64
2023/11/17 07:29:04;;;;;;;20.40;14.63;;;8.30;99.90;;;;;;5050179;28;20485;-63
2023/11/17 07:31:37;;;;;;;21.43;14.87;;;8.30;99.90;;;;;;5049940;28;20845;-62
2023/11/17 07:34:05;;;;;;;22.20;15.27;;;8.30;99.90;;;;;;5032220;28;20437;-64
2023/11/17 07:36:32;;;;;;;22.43;14.60;;;8.40;99.90;;;;;;5048174;28;20420;-63
2023/11/17 07:38:58;;;;;;;19.40;14.77;;;8.40;99.90;;;;;;5050088;28;20477;-64
2023/11/17 07:41:25;;;;;;;23.63;15.73;;;8.40;99.90;;;;;;5051878;28;20930;-65
2023/11/17 07:43:51;;;;;;;22.90;16.70;;;8.40;99.90;;;;;;5050295;28;20464;-65
2023/11/17 07:46:18;;;;;;;22.97;15.40;;;8.40;99.90;;;;;;5050825;28;20784;-65
2023/11/17 07:48:44;;;;;;;20.40;16.07;;;8.40;99.90;;;;;;5033817;28;20792;-68
2023/11/17 07:51:12;;;;;;;24.97;15.20;;;8.40;99.90;;;;;;5032300;28;20423;-64
2023/11/17 07:53:38;;;;;;;23.20;15.10;;;8.40;99.90;;;;;;5051214;28;20436;-64
2023/11/17 07:56:05;;;;;;;21.43;14.90;;;8.40;99.90;;;;;;5029354;28;20494;-64
2023/11/17 07:58:31;;;;;;;20.80;14.97;;;8.50;99.90;;;;;;5039724;28;20436;-67
2023/11/17 08:00:58;;;;;;;16.13;12.60;;;8.50;99.90;;;;;;5048931;28;20436;-64
2023/11/17 08:03:24;;;;;;;18.30;15.37;;;8.50;99.90;;;;;;5051120;28;20424;-64
2023/11/17 08:05:51;;;;;;;19.43;14.57;;;8.50;99.90;;;;;;5049509;28;20446;-64
2023/11/17 08:08:17;;;;;;;21.57;17.53;;;8.30;99.90;;;;;;5050842;28;20432;-65
2023/11/17 08:10:43;;;;;;;18.60;15.03;;;8.50;99.90;;;;;;5032492;28;20431;-63
2023/11/17 08:13:10;;;;;;;19.10;15.77;;;8.50;99.90;;;;;;5050367;28;20666;-63
2023/11/17 08:15:35;;;;;;;20.10;15.23;;;8.50;99.90;;;;;;5051853;28;20900;-64
2023/11/17 08:18:04;;;;;;;18.23;13.00;;;8.50;99.90;;;;;;5050405;28;20586;-63
2023/11/17 08:20:32;;;;;;;19.90;14.23;;;8.50;99.90;;;;;;5051018;28;20663;-62
2023/11/17 08:22:59;;;;;;;20.87;15.80;;;8.50;99.90;;;;;;5051281;28;20416;-63
2023/11/17 08:25:29;;;;;;;20.40;16.53;;;8.40;99.90;;;;;;5051023;28;20466;-63
2023/11/17 08:27:55;;;;;;;22.93;15.13;;;8.60;99.90;;;;;;5050634;28;20424;-64
2023/11/17 08:30:21;;;;;;;24.40;14.43;;;8.60;99.90;;;;;;5051356;28;20477;-64
2023/11/17 08:32:47;;;;;;;21.60;13.30;;;8.70;99.90;;;;;;5054428;28;20412;-64
2023/11/17 08:35:13;;;;;;;19.23;14.77;;;8.70;99.90;;;;;;5055691;28;20192;-63
2023/11/17 08:37:39;;;;;;;17.20;14.00;;;8.70;99.90;;;;;;5054793;28;20182;-63
2023/11/17 08:40:08;;;;;;;26.07;15.37;;;8.80;99.90;;;;;;5054140;28;20476;-64
2023/11/17 08:42:39;;;;;;;23.67;14.83;;;8.80;99.90;;;;;;5036810;28;20408;-64
2023/11/17 08:45:09;;;;;;;18.30;13.27;;;8.90;99.90;;;;;;5055271;28;20455;-64
2023/11/17 08:47:43;;;;;;;19.07;14.30;;;8.90;99.90;;;;;;5054517;28;20441;-64
2023/11/17 08:50:11;;;;;;;20.23;14.10;;;9.00;99.90;;;;;;5053827;28;20740;-63
2023/11/17 08:52:39;;;;;;;21.10;13.63;;;9.00;99.90;;;;;;5054479;28;20405;-64
2023/11/17 08:55:05;;;;;;;17.60;13.90;;;8.80;99.90;;;;;;5054826;28;20843;-63
2023/11/17 08:57:38;;;;;;;17.50;13.43;;;9.20;99.90;;;;;;5043184;28;20777;-63
2023/11/17 09:00:11;;;;;;;17.67;12.57;;;9.30;99.90;;;;;;5054248;28;20739;-63
2023/11/17 09:02:48;;;;;;;19.60;15.13;;;9.50;99.90;;;;;;5054459;28;20427;-63
2023/11/17 09:05:15;;;;;;;19.97;14.47;;;9.60;99.90;;;;;;5038383;28;20448;-63
2023/11/17 09:07:42;;;;;;;20.20;15.37;;;9.70;99.90;;;;;;5055501;28;20990;-63
2023/11/17 09:10:09;;;;;;;19.40;14.90;;;9.70;99.90;;;;;;5052238;28;21271;-64
2023/11/17 09:12:42;;;;;;;21.47;14.30;;;9.80;99.90;;;;;;5054295;28;20438;-63
2023/11/17 09:15:16;;;;;;;21.57;14.60;;;9.80;99.90;;;;;;5063792;28;20471;-63
2023/11/17 09:17:46;;;;;;;21.43;14.03;;;9.90;99.90;;;;;;5095148;28;20417;-63
2023/11/17 09:20:13;;;;;;;20.97;14.50;;;9.90;99.90;;;;;;5056588;28;20532;-63
2023/11/17 09:22:42;;;;;;;17.63;13.50;;;10.00;99.90;;;;;;5073742;28;20429;-63
2023/11/17 09:25:13;;;;;;;20.03;14.40;;;10.20;99.90;;;;;;5079788;28;20452;-63
2023/11/17 09:27:45;;;;;;;22.33;14.70;;;10.30;99.90;;;;;;5092906;28;20424;-63
2023/11/17 09:30:12;;;;;;;17.67;12.73;;;10.30;99.90;;;;;;5093233;28;20460;-63
2023/11/17 09:32:39;;;;;;;17.77;13.40;;;10.40;99.90;;;;;;5076968;28;20518;-63
2023/11/17 09:35:13;;;;;;;25.00;14.60;;;10.70;99.90;;;;;;5072900;28;20439;-63
2023/11/17 09:37:50;;;;;;;17.50;13.07;;;10.70;99.90;;;;;;5083792;28;20473;-63
2023/11/17 09:40:23;;;;;;;17.43;14.23;;;10.80;99.90;;;;;;5089847;28;20427;-63
2023/11/17 09:42:53;;;;;;;16.07;13.47;;;10.90;99.90;;;;;;5073315;28;20396;-63
2023/11/17 09:45:24;;;;;;;17.00;13.97;;;11.10;99.90;;;;;;5073452;28;20786;-63
2023/11/17 09:47:57;;;;;;;15.83;13.40;;;11.20;99.90;;;;;;5073257;28;20430;-63
2023/11/17 09:50:28;;;;;;;17.17;13.60;;;11.50;99.90;;;;;;5073462;28;20426;-63
2023/11/17 09:52:55;;;;;;;16.87;15.10;;;11.70;99.90;;;;;;5053689;28;20766;-63
2023/11/17 09:55:22;;;;;;;19.47;14.70;;;11.90;99.90;;;;;;5065927;28;20758;-63
2023/11/17 09:57:53;;;;;;;16.77;14.00;;;12.10;99.90;;;;;;5073063;28;20441;-63
2023/11/17 10:00:27;;;;;;;15.43;13.83;;;12.30;99.90;;;;;;5074404;28;20415;-63
2023/11/17 10:02:58;;;;;;;16.60;13.30;;;12.40;99.90;;;;;;5091545;28;20436;-64
2023/11/17 10:05:34;;;;;;;19.10;12.90;;;12.50;99.90;;;;;;5061352;28;20805;-63
2023/11/17 10:08:17;;;;;;;18.00;14.43;;;12.60;99.90;;;;;;5051045;28;20951;-63
2023/11/17 10:10:47;;;;;;;15.17;13.57;;;12.60;99.90;;;;;;5054016;28;20411;-63
2023/11/17 10:13:18;;;;;;;16.43;13.17;;;12.50;99.90;;;;;;5071324;28;20483;-63
2023/11/17 10:15:50;;;;;;;16.77;14.97;;;12.50;99.90;;;;;;5062670;28;20468;-63
2023/11/17 10:18:24;;;;;;;17.37;13.67;;;12.50;99.90;;;;;;5051658;28;20506;-63
2023/11/17 10:20:51;;;;;;;16.63;13.50;;;12.60;99.90;;;;;;5054107;28;20426;-63
2023/11/17 10:23:17;;;;;;;15.03;12.63;;;12.70;99.90;;;;;;5052072;28;20424;-63
2023/11/17 10:25:45;;;;;;;21.13;13.33;;;12.80;99.90;;;;;;5051669;28;20553;-63
2023/11/17 10:28:15;;;;;;;16.10;12.17;;;12.80;99.90;;;;;;5053335;28;20417;-63
2023/11/17 10:30:42;;;;;;;17.87;12.87;;;12.80;99.90;;;;;;5052573;28;20437;-63
2023/11/17 10:33:23;;;;;;;15.60;13.17;;;12.80;99.90;;;;;;5051938;28;20426;-63
2023/11/17 10:36:10;;;;;;;17.33;13.00;;;12.80;99.90;;;;;;5053823;28;20390;-63
2023/11/17 10:38:37;;;;;;;15.40;13.80;;;12.70;99.90;;;;;;5033559;28;20823;-63
2023/11/17 10:41:14;;;;;;;16.53;12.93;;;12.60;99.90;;;;;;5043533;28;20444;-63
2023/11/17 10:43:49;;;;;;;16.63;12.90;;;12.60;99.90;;;;;;5052187;28;20461;-63
2023/11/17 10:46:19;;;;;;;13.63;11.93;;;12.50;99.90;;;;;;5051124;28;20474;-67
2023/11/17 10:48:46;;;;;;;12.80;10.40;;;12.50;99.90;;;;;;5042663;28;20429;-63
2023/11/17 10:51:16;;;;;;;13.20;11.07;;;12.50;99.90;;;;;;5052526;28;20403;-63
2023/11/17 10:53:42;;;;;;;14.90;10.73;;;12.50;99.90;;;;;;5049541;28;20424;-63
2023/11/17 10:56:24;;;;;;;12.23;10.40;;;12.40;99.90;;;;;;5052357;28;20904;-63
2023/11/17 10:58:55;;;;;;;14.97;13.20;;;12.40;99.90;;;;;;5052025;28;20174;-63
2023/11/17 11:01:22;;;;;;;13.73;11.80;;;12.30;99.90;;;;;;5052056;28;20417;-65
2023/11/17 11:03:47;;;;;;;12.03;10.73;;;12.30;99.90;;;;;;5033446;28;20502;-63
2023/11/17 11:06:13;;;;;;;11.57;9.90;;;12.20;99.90;;;;;;5049455;28;20515;-64
2023/11/17 11:09:00;;;;;;;12.07;10.13;;;12.20;99.90;;;;;;5031646;28;20178;-63
2023/11/17 11:11:26;;;;;;;12.73;9.60;;;12.10;99.90;;;;;;5052182;28;20420;-67
2023/11/17 11:13:58;;;;;;;12.07;10.30;;;12.10;99.90;;;;;;5048200;28;20554;-64
2023/11/17 11:16:25;;;;;;;13.23;12.03;;;12.00;99.90;;;;;;5068851;28;20475;-67
2023/11/17 11:18:54;;;;;;;11.20;10.00;;;12.00;99.90;;;;;;5076357;28;20480;-67
2023/11/17 11:21:21;;;;;;;11.60;9.97;;;12.00;99.90;;;;;;5068197;28;20790;-67
2023/11/17 11:23:49;;;;;;;13.20;11.90;;;12.00;99.90;;;;;;5065883;28;20462;-67
2023/11/17 11:26:17;;;;;;;12.10;9.90;;;12.00;99.90;;;;;;5067723;28;20506;-67
2023/11/17 11:28:45;;;;;;;12.33;11.03;;;12.00;99.90;;;;;;5069640;28;20425;-67
2023/11/17 11:31:19;;;;;;;14.77;11.63;;;12.00;99.90;;;;;;5066833;28;20419;-67
2023/11/17 11:33:46;;;;;;;12.07;10.30;;;11.90;99.90;;;;;;5070493;28;20415;-67
2023/11/17 11:36:11;;;;;;;12.50;11.20;;;11.90;99.90;;;;;;5063246;28;20419;-67
2023/11/17 11:38:39;;;;;;;11.47;9.50;;;11.90;99.90;;;;;;5064371;28;20545;-67
2023/11/17 11:41:11;;;;;;;14.43;13.03;;;11.90;99.90;;;;;;5086503;28;20460;-67
2023/11/17 11:43:44;;;;;;;15.77;13.20;;;11.90;99.90;;;;;;5076822;28;20510;-67
2023/11/17 11:46:16;;;;;;;14.67;10.63;;;11.90;99.90;;;;;;5090905;28;20425;-67
2023/11/17 11:48:48;;;;;;;13.40;11.17;;;11.90;99.90;;;;;;5075922;28;20433;-68
2023/11/17 11:51:15;;;;;;;11.90;9.10;;;11.90;99.90;;;;;;5070508;28;20430;-67
2023/11/17 11:53:53;;;;;;;8.53;7.80;;;11.90;99.90;;;;;;5070971;28;20800;-67
2023/11/17 11:56:21;;;;;;;516.03;326.77;;;11.90;99.90;;;;;;5070173;28;20454;-68
2023/11/17 11:58:51;;;;;;;23.70;15.60;;;11.80;99.90;;;;;;5053117;28;20527;-68
2023/11/17 12:01:18;;;;;;;10.83;9.00;;;11.80;99.90;;;;;;5067462;28;20426;-68
2023/11/17 12:03:50;;;;;;;9.10;8.07;;;11.80;99.90;;;;;;5084839;28;20477;-68
2023/11/17 12:06:24;;;;;;;10.50;9.50;;;11.80;99.90;;;;;;5073292;28;20432;-68
2023/11/17 12:08:53;;;;;;;10.60;9.53;;;11.80;99.90;;;;;;5070465;28;20520;-69
2023/11/17 12:11:20;;;;;;;11.57;10.00;;;11.80;99.90;;;;;;5055493;28;20644;-68
2023/11/17 12:13:55;;;;;;;11.03;9.93;;;11.90;99.90;;;;;;5073166;28;20445;-68
2023/11/17 12:16:31;;;;;;;10.90;9.83;;;12.00;99.90;;;;;;5057644;28;20528;-68
2023/11/17 12:19:04;;;;;;;10.10;9.10;;;11.90;99.90;;;;;;5050826;28;20820;-68
2023/11/17 12:21:38;;;;;;;10.67;9.57;;;11.90;99.90;;;;;;5053892;28;20427;-68
2023/11/17 12:24:12;;;;;;;10.33;9.33;;;11.90;99.90;;;;;;5054032;28;20460;-68
2023/11/17 12:26:41;;;;;;;9.87;8.83;;;11.90;99.90;;;;;;5026038;28;20451;-68
2023/11/17 12:29:11;;;;;;;9.90;7.83;;;11.90;99.90;;;;;;5036759;28;20911;-68
2023/11/17 12:31:38;;;;;;;8.00;7.20;;;11.90;99.90;;;;;;5053862;28;20916;-68
2023/11/17 12:34:05;;;;;;;11.37;9.23;;;11.90;99.90;;;;;;5036303;28;20504;-68
2023/11/17 12:36:31;;;;;;;9.20;7.67;;;11.90;99.90;;;;;;5053507;28;20535;-68
2023/11/17 12:39:14;;;;;;;8.27;7.47;;;11.80;99.90;;;;;;5054210;28;20443;-68
2023/11/17 12:41:50;;;;;;;8.37;6.77;;;11.90;99.90;;;;;;5037782;28;20463;-68
2023/11/17 12:44:18;;;;;;;14.23;8.60;;;11.90;99.90;;;;;;5053331;28;20459;-68
2023/11/17 12:46:45;;;;;;;12.20;8.30;;;11.90;99.90;;;;;;5051455;28;20440;-66
2023/11/17 12:49:15;;;;;;;9.80;8.30;;;12.00;99.90;;;;;;5051809;28;20428;-67